createdAt,value
2023-02-23T00:01:42.520Z,100067.41
2023-02-23T00:04:10.488Z,100068.84
2023-02-23T00:06:39.973Z,100064.03
2023-02-23T00:09:12.481Z,100064.16
2023-02-23T00:11:41.541Z,100065.38
2023-02-23T00:14:09.354Z,100069.97
2023-02-23T00:16:37.535Z,100070.69
2023-02-23T00:19:08.000Z,100071.66
2023-02-23T00:21:35.987Z,100066.22
2023-02-23T00:24:05.633Z,100065.25
2023-02-23T00:26:35.265Z,100066.22
2023-02-23T00:29:06.326Z,100068.88
2023-02-23T00:31:35.178Z,100064.03
2023-02-23T00:34:04.659Z,100063.06
2023-02-23T00:36:34.533Z,100064.03
2023-02-23T00:39:07.188Z,100058.84
2023-02-23T00:41:34.903Z,100059.22
2023-02-23T00:44:04.351Z,100060.06
2023-02-23T00:46:32.202Z,100055.72
2023-02-23T00:49:00.391Z,100055.00
2023-02-23T00:51:31.011Z,100055.72
2023-02-23T00:53:59.545Z,100060.44
2023-02-23T00:56:28.410Z,100053.78
2023-02-23T00:58:56.563Z,100056.56
2023-02-23T01:01:26.074Z,100055.97
2023-02-23T01:03:54.193Z,100057.19
2023-02-23T01:06:22.527Z,100055.38
2023-02-23T01:08:56.583Z,100059.72
2023-02-23T01:11:27.736Z,100052.00
2023-02-23T01:13:57.544Z,100058.50
2023-02-23T01:16:29.315Z,100049.56
2023-02-23T01:18:58.741Z,100058.38
2023-02-23T01:21:29.349Z,100061.66
2023-02-23T01:23:57.998Z,100056.06
2023-02-23T01:26:28.054Z,100059.72
2023-02-23T01:28:58.233Z,100057.16
2023-02-23T01:31:28.949Z,100058.88
2023-02-23T01:33:57.836Z,100054.75
2023-02-23T01:36:26.525Z,100058.28
2023-02-23T01:38:56.404Z,100057.66
2023-02-23T01:41:24.113Z,100051.13
2023-02-23T01:44:00.099Z,100057.88
2023-02-23T01:46:29.294Z,100052.69
2023-02-23T01:48:58.274Z,100047.25
2023-02-23T01:51:32.027Z,100049.06
2023-02-23T01:54:05.850Z,100050.28
2023-02-23T01:56:37.436Z,100046.91
2023-02-23T01:59:08.559Z,100050.19
2023-02-23T02:01:38.584Z,100048.47
2023-02-23T02:04:06.725Z,100044.00
2023-02-23T02:06:37.186Z,100040.50
2023-02-23T02:09:10.242Z,100037.97
2023-02-23T02:11:39.253Z,100043.88
2023-02-23T02:14:12.945Z,100043.16
2023-02-23T02:17:12.791Z,100043.75
2023-02-23T02:20:32.645Z,100040.00
2023-02-23T02:23:23.506Z,100035.53
2023-02-23T02:26:01.195Z,100039.06
2023-02-23T02:28:43.761Z,100033.84
2023-02-23T02:31:47.619Z,100037.47
2023-02-23T02:34:36.973Z,100035.78
2023-02-23T02:37:25.343Z,100021.91
2023-02-23T02:40:15.735Z,100032.66
2023-02-23T02:43:00.847Z,100029.16
2023-02-23T02:45:37.484Z,100026.38
2023-02-23T02:48:10.174Z,100035.31
2023-02-23T02:50:44.419Z,100022.13
2023-02-23T02:53:20.648Z,100021.28
2023-02-23T02:55:50.190Z,100016.97
2023-02-23T02:58:19.447Z,100015.75
2023-02-23T03:01:07.282Z,100024.56
2023-02-23T03:03:55.964Z,100016.47
2023-02-23T03:06:45.632Z,100012.38
2023-02-23T03:09:44.512Z,100013.09
2023-02-23T03:12:40.401Z,100013.81
2023-02-23T03:15:41.317Z,100020.97
2023-02-23T03:18:44.224Z,100009.13
2023-02-23T03:21:35.548Z,100014.69
2023-02-23T03:24:29.476Z,100012.16
2023-02-23T03:27:22.562Z,100014.81
2023-02-23T03:30:14.138Z,100021.06
2023-02-23T03:33:05.736Z,100020.97
2023-02-23T03:35:58.249Z,100023.63
2023-02-23T03:38:51.037Z,100022.91
2023-02-23T03:41:39.728Z,100021.22
2023-02-23T03:44:30.995Z,100027.50
2023-02-23T03:47:18.070Z,100024.84
2023-02-23T03:50:05.916Z,100027.75
2023-02-23T03:52:59.137Z,100029.53
2023-02-23T03:55:46.682Z,100026.31
2023-02-23T03:58:35.962Z,100033.06
2023-02-23T04:01:27.985Z,100024.47
2023-02-23T04:04:16.449Z,100026.31
2023-02-23T04:07:04.865Z,100029.56
2023-02-23T04:09:51.364Z,100021.44
2023-02-23T04:12:42.642Z,100025.94
2023-02-23T04:15:13.748Z,100027.53
2023-02-23T04:17:43.772Z,100021.22
2023-02-23T04:20:14.654Z,100032.47
2023-02-23T04:22:42.335Z,100039.34
2023-02-23T04:25:11.946Z,100027.59
2023-02-23T04:27:39.855Z,100028.09
2023-02-23T04:30:11.364Z,100031.25
2023-02-23T04:32:39.633Z,100033.91
2023-02-23T04:35:10.467Z,100033.03
2023-02-23T04:37:38.715Z,100034.00
2023-02-23T04:40:08.442Z,100032.06
2023-02-23T04:42:36.212Z,100038.34
2023-02-23T04:45:04.009Z,100032.31
2023-02-23T04:47:31.789Z,100040.28
2023-02-23T04:49:59.475Z,100037.63
2023-02-23T04:52:28.622Z,100048.03
2023-02-23T04:54:57.564Z,100041.13
2023-02-23T04:57:25.500Z,100047.31
2023-02-23T04:59:53.217Z,100048.03
2023-02-23T05:02:20.909Z,100035.69
2023-02-23T05:04:49.973Z,100036.41
2023-02-23T05:07:18.136Z,100041.72
2023-02-23T05:09:47.185Z,100040.06
2023-02-23T05:12:15.099Z,100052.34
2023-02-23T05:14:43.022Z,100047.03
2023-02-23T05:17:10.840Z,100044.38
2023-02-23T05:19:38.722Z,100040.16
2023-02-23T05:22:06.519Z,100046.31
2023-02-23T05:24:34.435Z,100043.66
2023-02-23T05:27:03.561Z,100042.09
2023-02-23T05:29:31.268Z,100046.56
2023-02-23T05:31:59.066Z,100037.75
2023-02-23T05:34:27.215Z,100047.53
2023-02-23T05:36:55.270Z,100044.88
2023-02-23T05:39:22.952Z,100042.34
2023-02-23T05:41:50.702Z,100042.22
2023-02-23T05:44:19.810Z,100040.41
2023-02-23T05:46:48.974Z,100045.97
2023-02-23T05:49:16.721Z,100045.84
2023-02-23T05:51:44.397Z,100049.34
2023-02-23T05:54:12.373Z,100044.03
2023-02-23T05:56:40.114Z,100046.81
2023-02-23T05:59:07.883Z,100055.03
2023-02-23T06:01:37.040Z,100044.66
2023-02-23T06:04:06.213Z,100044.19
2023-02-23T06:06:34.136Z,100047.19
2023-02-23T06:09:01.858Z,100051.16
2023-02-23T06:11:29.620Z,100056.47
2023-02-23T06:13:59.342Z,100052.97
2023-02-23T06:16:27.629Z,100052.88
2023-02-23T06:18:56.915Z,100052.97
2023-02-23T06:21:25.285Z,100056.63
2023-02-23T06:23:53.548Z,100053.22
2023-02-23T06:26:21.604Z,100064.44
2023-02-23T06:28:49.314Z,100064.44
2023-02-23T06:31:17.262Z,100068.81
2023-02-23T06:33:45.211Z,100065.41
2023-02-23T06:36:14.292Z,100078.34
2023-02-23T06:38:42.034Z,100075.69
2023-02-23T06:41:10.309Z,100078.34
2023-02-23T06:43:38.151Z,100083.50
2023-02-23T06:46:06.301Z,100084.50
2023-02-23T06:48:35.494Z,100085.59
2023-02-23T06:51:03.475Z,100085.81
2023-02-23T06:53:33.524Z,100081.69
2023-02-23T06:56:01.505Z,100091.34
2023-02-23T06:58:29.435Z,100093.06
2023-02-23T07:00:58.559Z,100097.38
2023-02-23T07:03:27.030Z,100092.56
2023-02-23T07:05:54.958Z,100102.00
2023-02-23T07:08:22.818Z,100104.44
2023-02-23T07:10:51.918Z,100108.88
2023-02-23T07:13:20.566Z,100107.09
2023-02-23T07:15:48.400Z,100108.88
2023-02-23T07:18:16.314Z,100116.97
2023-02-23T07:20:44.845Z,100118.66
2023-02-23T07:23:12.576Z,100123.38
2023-02-23T07:25:40.322Z,100123.72
2023-02-23T07:28:09.430Z,100127.72
2023-02-23T07:30:37.197Z,100120.59
2023-02-23T07:33:04.921Z,100122.78
2023-02-23T07:35:32.732Z,100125.19
2023-02-23T07:38:00.454Z,100126.66
2023-02-23T07:40:28.554Z,100127.16
2023-02-23T07:42:56.423Z,100124.72
2023-02-23T07:45:25.743Z,100133.16
2023-02-23T07:47:53.551Z,100127.72
2023-02-23T07:50:21.589Z,100124.84
2023-02-23T07:52:49.339Z,100128.22
2023-02-23T07:55:17.081Z,100130.63
2023-02-23T07:57:44.833Z,100127.97
2023-02-23T08:00:13.584Z,100129.50
2023-02-23T08:02:42.750Z,100134.50
2023-02-23T08:05:10.867Z,100143.78
2023-02-23T08:07:39.109Z,100142.69
2023-02-23T08:10:07.742Z,100138.81
2023-02-23T08:12:35.469Z,100141.09
2023-02-23T08:15:03.342Z,100139.88
2023-02-23T08:17:31.074Z,100141.81
2023-02-23T08:20:00.406Z,100140.19
2023-02-23T08:22:29.347Z,100139.56
2023-02-23T08:24:57.343Z,100135.34
2023-02-23T08:27:25.622Z,100136.09
2023-02-23T08:29:57.940Z,100133.56
2023-02-23T08:32:25.737Z,100140.28
2023-02-23T08:34:54.202Z,100139.94
2023-02-23T08:37:23.415Z,100137.22
2023-02-23T08:39:51.606Z,100136.91
2023-02-23T08:42:19.585Z,100147.22
2023-02-23T08:44:49.358Z,100141.28
2023-02-23T08:47:17.838Z,100137.69
2023-02-23T08:49:45.736Z,100139.03
2023-02-23T08:52:13.693Z,100138.09
2023-02-23T08:54:42.963Z,100138.84
2023-02-23T08:57:12.622Z,100140.97
2023-02-23T08:59:41.309Z,100131.44
2023-02-23T09:02:14.042Z,100128.63
2023-02-23T09:04:43.046Z,100138.03
2023-02-23T09:07:15.555Z,100129.97
2023-02-23T09:09:44.926Z,100126.72
2023-02-23T09:12:12.959Z,100137.69
2023-02-23T09:14:40.982Z,100137.22
2023-02-23T09:17:08.799Z,100140.59
2023-02-23T09:19:36.655Z,100142.16
2023-02-23T09:22:04.692Z,100136.25
2023-02-23T09:24:32.759Z,100141.34
2023-02-23T09:27:02.072Z,100143.97
2023-02-23T09:29:30.541Z,100151.56
2023-02-23T09:31:58.423Z,100149.09
2023-02-23T09:34:26.246Z,100151.50
2023-02-23T09:36:55.733Z,100146.09
2023-02-23T09:39:36.893Z,100154.97
2023-02-23T09:42:18.033Z,100150.66
2023-02-23T09:44:59.996Z,100151.66
2023-02-23T09:47:40.559Z,100156.56
2023-02-23T09:50:17.795Z,100151.97
2023-02-23T09:52:50.301Z,100144.91
2023-02-23T09:55:18.944Z,100147.47
2023-02-23T09:57:50.209Z,100148.91
2023-02-23T10:00:24.181Z,100148.16
2023-02-23T10:03:11.964Z,100153.81
2023-02-23T10:05:45.563Z,100153.53
2023-02-23T10:08:24.274Z,100155.94
2023-02-23T10:11:00.924Z,100158.44
2023-02-23T10:13:40.175Z,100165.72
2023-02-23T10:16:15.907Z,100157.72
2023-02-23T10:18:52.091Z,100166.72
2023-02-23T10:21:30.320Z,100158.94
2023-02-23T10:24:02.948Z,100169.59
2023-02-23T10:26:38.260Z,100169.09
2023-02-23T10:29:21.965Z,100176.44
2023-02-23T10:31:52.411Z,100175.25
2023-02-23T10:34:22.372Z,100183.38
2023-02-23T10:36:57.224Z,100180.75
2023-02-23T10:39:25.342Z,100183.34
2023-02-23T10:41:54.755Z,100183.44
2023-02-23T10:44:26.521Z,100183.06
2023-02-23T10:46:56.979Z,100179.63
2023-02-23T10:49:31.669Z,100182.53
2023-02-23T10:52:03.036Z,100182.50
2023-02-23T10:54:44.811Z,100175.25
2023-02-23T10:57:19.969Z,100176.94
2023-02-23T11:00:08.561Z,100173.31
2023-02-23T11:02:37.611Z,100170.19
2023-02-23T11:05:07.212Z,100173.81
2023-02-23T11:07:35.913Z,100170.84
2023-02-23T11:10:30.230Z,100169.78
2023-02-23T11:12:58.240Z,100173.63
2023-02-23T11:15:48.593Z,100179.38
2023-02-23T11:18:22.788Z,100175.59
2023-02-23T11:20:51.600Z,100172.03
2023-02-23T11:23:24.320Z,100166.41
2023-02-23T11:25:55.495Z,100167.69
2023-02-23T11:28:30.314Z,100169.00
2023-02-23T11:31:03.521Z,100165.19
2023-02-23T11:33:36.016Z,100157.22
2023-02-23T11:36:17.864Z,100158.72
2023-02-23T11:38:46.519Z,100160.75
2023-02-23T11:41:23.527Z,100158.22
2023-02-23T11:43:52.790Z,100155.88
2023-02-23T11:46:23.326Z,100152.09
2023-02-23T11:48:56.043Z,100147.22
2023-02-23T11:51:25.735Z,100146.56
2023-02-23T11:53:53.891Z,100142.38
2023-02-23T11:56:25.704Z,100147.59
2023-02-23T11:58:57.742Z,100134.81
2023-02-23T12:01:41.759Z,100144.75
2023-02-23T12:04:11.553Z,100136.50
2023-02-23T12:06:41.662Z,100134.50
2023-02-23T12:09:19.404Z,100129.44
2023-02-23T12:11:52.940Z,100128.59
2023-02-23T12:14:31.644Z,100131.16
2023-02-23T12:17:05.456Z,100120.19
2023-02-23T12:19:38.089Z,100126.06
2023-02-23T12:22:08.408Z,100120.69
2023-02-23T12:24:44.466Z,100120.69
2023-02-23T12:27:16.499Z,100123.53
2023-02-23T12:30:03.429Z,100124.72
2023-02-23T12:32:45.268Z,100115.16
2023-02-23T12:35:17.872Z,100115.66
2023-02-23T12:37:48.316Z,100118.69
2023-02-23T12:40:20.238Z,100114.31
2023-02-23T12:42:56.175Z,100108.59
2023-02-23T12:45:32.132Z,100106.56
2023-02-23T12:48:09.027Z,100109.41
2023-02-23T12:50:43.325Z,100109.09
2023-02-23T12:53:22.084Z,100113.56
2023-02-23T12:56:04.490Z,100106.63
2023-02-23T12:58:42.647Z,100103.22
2023-02-23T13:01:14.643Z,100101.16
2023-02-23T13:04:09.123Z,100098.47
2023-02-23T13:06:47.122Z,100100.47
2023-02-23T13:09:26.118Z,100103.94
2023-02-23T13:12:10.736Z,100102.94
2023-02-23T13:14:45.042Z,100109.09
2023-02-23T13:17:30.155Z,100109.34
2023-02-23T13:20:02.605Z,100105.69
2023-02-23T13:22:36.619Z,100105.25
2023-02-23T13:25:18.646Z,100103.22
2023-02-23T13:27:52.854Z,100102.81
2023-02-23T13:30:22.592Z,100102.63
2023-02-23T13:32:50.975Z,100103.16
2023-02-23T13:35:22.070Z,100101.47
2023-02-23T13:37:53.056Z,100101.22
2023-02-23T13:40:32.681Z,100101.50
2023-02-23T13:43:13.684Z,100097.00
2023-02-23T13:46:18.719Z,100097.94
2023-02-23T13:48:57.979Z,100099.78
2023-02-23T13:51:37.826Z,100100.53
2023-02-23T13:54:22.984Z,100091.81
2023-02-23T13:56:55.112Z,100106.72
2023-02-23T13:59:25.993Z,100096.50
2023-02-23T14:01:55.767Z,100093.25
2023-02-23T14:04:25.924Z,100092.91
2023-02-23T14:06:58.934Z,100096.78
2023-02-23T14:09:31.930Z,100096.34
2023-02-23T14:12:19.173Z,100097.47
2023-02-23T14:14:47.937Z,100100.47
2023-02-23T14:17:52.621Z,100101.06
2023-02-23T14:20:43.800Z,100099.63
2023-02-23T14:23:34.086Z,100097.78
2023-02-23T14:26:36.688Z,100091.81
2023-02-23T14:29:41.607Z,100093.56
2023-02-23T14:32:31.086Z,100095.09
2023-02-23T14:35:00.527Z,100087.66
2023-02-23T14:37:32.477Z,100094.00
2023-02-23T14:40:13.029Z,100096.69
2023-02-23T14:42:42.239Z,100093.78
2023-02-23T14:45:20.751Z,100092.00
2023-02-23T14:47:52.081Z,100093.50
2023-02-23T14:50:26.774Z,100090.63
2023-02-23T14:52:56.445Z,100084.38
2023-02-23T14:55:29.321Z,100083.75
2023-02-23T14:57:58.536Z,100085.47
2023-02-23T15:00:28.863Z,100077.25
2023-02-23T15:03:00.895Z,100080.25
2023-02-23T15:05:31.889Z,100084.22
2023-02-23T15:08:05.600Z,100084.22
2023-02-23T15:10:38.064Z,100082.97
2023-02-23T15:13:11.428Z,100079.69
2023-02-23T15:15:45.270Z,100085.59
2023-02-23T15:18:23.074Z,100088.88
2023-02-23T15:20:51.723Z,100083.34
2023-02-23T15:23:21.462Z,100092.94
2023-02-23T15:25:51.263Z,100091.09
2023-02-23T15:28:25.359Z,100091.09
2023-02-23T15:30:55.061Z,100088.28
2023-02-23T15:33:28.375Z,100094.59
2023-02-23T15:36:02.184Z,100095.91
2023-02-23T15:38:43.869Z,100095.63
2023-02-23T15:41:23.217Z,100096.16
2023-02-23T15:43:51.105Z,100092.19
2023-02-23T15:46:27.619Z,100097.81
2023-02-23T15:49:00.931Z,100097.28
2023-02-23T15:51:35.352Z,100096.44
2023-02-23T15:54:13.713Z,100087.88
2023-02-23T15:56:49.989Z,100088.56
2023-02-23T15:59:23.702Z,100095.34
2023-02-23T16:01:54.534Z,100092.31
2023-02-23T16:04:27.293Z,100085.56
2023-02-23T16:06:56.347Z,100094.88
2023-02-23T16:09:29.161Z,100095.31
2023-02-23T16:12:03.184Z,100090.66
2023-02-23T16:14:35.734Z,100092.94
2023-02-23T16:17:11.646Z,100086.22
2023-02-23T16:19:41.746Z,100089.16
2023-02-23T16:22:21.492Z,100088.91
2023-02-23T16:25:00.862Z,100094.25
2023-02-23T16:27:31.358Z,100091.16
2023-02-23T16:30:06.619Z,100094.28
2023-02-23T16:32:37.506Z,100091.50
2023-02-23T16:35:15.998Z,100096.75
2023-02-23T16:37:54.818Z,100102.38
2023-02-23T16:40:22.633Z,100098.31
2023-02-23T16:42:53.938Z,100103.25
2023-02-23T16:45:22.759Z,100098.31
2023-02-23T16:47:52.525Z,100105.94
2023-02-23T16:50:22.301Z,100106.53
2023-02-23T16:52:53.029Z,100100.75
2023-02-23T16:55:26.222Z,100099.09
2023-02-23T16:57:57.473Z,100105.72
2023-02-23T17:00:28.581Z,100112.47
2023-02-23T17:02:57.414Z,100108.38
2023-02-23T17:05:26.014Z,100105.59
2023-02-23T17:07:54.465Z,100108.25
2023-02-23T17:10:26.966Z,100115.97
2023-02-23T17:12:58.850Z,100118.06
2023-02-23T17:15:29.241Z,100113.31
2023-02-23T17:17:57.148Z,100117.41
2023-02-23T17:20:26.099Z,100119.50
2023-02-23T17:22:54.972Z,100117.09
2023-02-23T17:25:24.226Z,100124.41
2023-02-23T17:27:52.273Z,100116.69
2023-02-23T17:30:22.375Z,100126.81
2023-02-23T17:32:51.882Z,100127.50
2023-02-23T17:35:20.255Z,100131.44
2023-02-23T17:37:48.305Z,100128.06
2023-02-23T17:40:20.650Z,100124.94
2023-02-23T17:42:48.433Z,100124.53
2023-02-23T17:45:16.214Z,100128.44
2023-02-23T17:47:45.501Z,100128.00
2023-02-23T17:50:13.468Z,100129.25
2023-02-23T17:52:41.225Z,100127.84
2023-02-23T17:55:10.172Z,100128.09
2023-02-23T17:57:37.947Z,100128.38
2023-02-23T18:00:07.892Z,100129.63
2023-02-23T18:02:35.668Z,100131.47
2023-02-23T18:05:04.988Z,100130.19
2023-02-23T18:07:32.745Z,100131.16
2023-02-23T18:10:00.498Z,100129.47
2023-02-23T18:12:28.505Z,100122.56
2023-02-23T18:14:56.261Z,100130.97
2023-02-23T18:17:23.964Z,100134.50
2023-02-23T18:19:52.174Z,100132.09
2023-02-23T18:22:21.303Z,100130.69
2023-02-23T18:24:49.250Z,100138.69
2023-02-23T18:27:17.059Z,100136.03
2023-02-23T18:29:44.937Z,100133.63
2023-02-23T18:32:13.215Z,100142.03
2023-02-23T18:34:41.054Z,100141.44
2023-02-23T18:37:10.129Z,100140.72
2023-02-23T18:39:39.499Z,100134.81
2023-02-23T18:42:07.473Z,100141.16
2023-02-23T18:44:35.417Z,100140.56
2023-02-23T18:47:03.305Z,100138.03
2023-02-23T18:49:31.042Z,100140.56
2023-02-23T18:52:00.239Z,100138.44
2023-02-23T18:54:28.007Z,100140.09
2023-02-23T18:56:57.206Z,100134.94
2023-02-23T18:59:25.020Z,100129.00
2023-02-23T19:01:52.917Z,100129.97
2023-02-23T19:04:20.920Z,100128.44
2023-02-23T19:06:48.812Z,100129.38
2023-02-23T19:09:21.401Z,100122.38
2023-02-23T19:11:50.743Z,100127.13
2023-02-23T19:14:32.850Z,100129.09
2023-02-23T19:17:09.105Z,100115.03
2023-02-23T19:19:38.314Z,100119.06
2023-02-23T19:22:06.235Z,100120.19
2023-02-23T19:24:35.762Z,100122.97
2023-02-23T19:27:05.081Z,100121.44
2023-02-23T19:29:34.370Z,100118.59
2023-02-23T19:32:03.029Z,100123.06
2023-02-23T19:34:31.517Z,100118.13
2023-02-23T19:36:59.313Z,100119.22
2023-02-23T19:39:27.123Z,100128.47
2023-02-23T19:41:55.282Z,100117.09
2023-02-23T19:44:23.112Z,100121.81
2023-02-23T19:46:52.378Z,100129.94
2023-02-23T19:49:20.308Z,100136.38
2023-02-23T19:51:50.580Z,100129.88
2023-02-23T19:54:18.401Z,100134.03
2023-02-23T19:56:46.336Z,100134.88
2023-02-23T19:59:14.213Z,100133.75
2023-02-23T20:01:43.600Z,100130.13
2023-02-23T20:04:13.053Z,100139.03
2023-02-23T20:06:47.131Z,100133.00
2023-02-23T20:09:15.784Z,100141.56
2023-02-23T20:11:43.634Z,100142.53
2023-02-23T20:14:12.576Z,100139.16
2023-02-23T20:16:40.719Z,100139.53
2023-02-23T20:19:08.485Z,100140.88
2023-02-23T20:21:37.748Z,100141.84
2023-02-23T20:24:06.545Z,100130.47
2023-02-23T20:26:37.036Z,100129.66
2023-02-23T20:29:06.699Z,100139.56
2023-02-23T20:31:36.801Z,100142.13
2023-02-23T20:34:06.436Z,100140.78
2023-02-23T20:36:34.640Z,100141.91
2023-02-23T20:39:04.219Z,100138.41
2023-02-23T20:41:32.110Z,100142.75
2023-02-23T20:44:00.919Z,100138.53
2023-02-23T20:46:30.968Z,100141.53
2023-02-23T20:48:59.415Z,100141.69
2023-02-23T20:51:27.944Z,100146.13
2023-02-23T20:53:56.563Z,100138.16
2023-02-23T20:56:25.683Z,100139.13
2023-02-23T20:58:54.416Z,100140.47
2023-02-23T21:01:26.224Z,100138.91
2023-02-23T21:03:56.157Z,100141.69
2023-02-23T21:06:25.856Z,100139.88
2023-02-23T21:08:55.778Z,100136.50
2023-02-23T21:11:26.585Z,100137.59
2023-02-23T21:13:54.900Z,100143.88
2023-02-23T21:16:24.174Z,100143.03
2023-02-23T21:19:03.965Z,100148.63
2023-02-23T21:21:33.541Z,100147.50
2023-02-23T21:24:01.333Z,100150.19
2023-02-23T21:26:31.636Z,100150.50
2023-02-23T21:28:59.378Z,100144.63
2023-02-23T21:31:27.470Z,100143.66
2023-02-23T21:33:55.679Z,100145.97
2023-02-23T21:36:23.722Z,100147.78
2023-02-23T21:38:51.504Z,100145.13
2023-02-23T21:41:19.620Z,100150.78
2023-02-23T21:43:53.463Z,100145.97
2023-02-23T21:46:23.155Z,100142.72
2023-02-23T21:48:50.991Z,100147.31
2023-02-23T21:51:19.137Z,100146.09
2023-02-23T21:53:47.472Z,100146.47
2023-02-23T21:56:17.336Z,100143.31
2023-02-23T21:58:46.497Z,100148.38
2023-02-23T22:01:18.188Z,100151.78
2023-02-23T22:03:46.335Z,100150.91
2023-02-23T22:06:14.781Z,100150.56
2023-02-23T22:08:44.856Z,100149.13
2023-02-23T22:11:17.247Z,100144.31
2023-02-23T22:13:45.406Z,100148.03
2023-02-23T22:16:14.121Z,100141.97
2023-02-23T22:18:44.111Z,100146.47
2023-02-23T22:21:12.769Z,100146.22
2023-02-23T22:23:41.509Z,100141.13
2023-02-23T22:26:09.458Z,100150.53
2023-02-23T22:28:37.702Z,100148.03
2023-02-23T22:31:08.324Z,100142.94
2023-02-23T22:33:37.338Z,100142.72
2023-02-23T22:36:10.492Z,100141.38
2023-02-23T22:38:39.005Z,100141.50
2023-02-23T22:41:08.917Z,100141.84
2023-02-23T22:43:37.118Z,100143.94
2023-02-23T22:46:06.336Z,100139.81
2023-02-23T22:48:34.130Z,100138.00
2023-02-23T22:51:02.375Z,100140.66
2023-02-23T22:53:32.189Z,100136.66
2023-02-23T22:56:00.008Z,100131.47
2023-02-23T22:58:27.868Z,100141.34
2023-02-23T23:01:06.145Z,100138.94
2023-02-23T23:03:38.069Z,100143.28
2023-02-23T23:06:08.103Z,100134.22
2023-02-23T23:08:39.157Z,100135.56
2023-02-23T23:11:09.986Z,100137.25
2023-02-23T23:13:44.516Z,100136.28
2023-02-23T23:16:28.862Z,100123.25
2023-02-23T23:19:02.626Z,100132.03
2023-02-23T23:21:32.331Z,100117.94
2023-02-23T23:24:05.809Z,100125.06
2023-02-23T23:26:35.120Z,100120.69
2023-02-23T23:29:05.635Z,100127.00
2023-02-23T23:31:35.255Z,100118.91
2023-02-23T23:34:06.057Z,100118.28
2023-02-23T23:36:38.216Z,100123.59
2023-02-23T23:39:07.463Z,100123.81
2023-02-23T23:41:35.582Z,100115.75
2023-02-23T23:44:05.208Z,100116.94
2023-02-23T23:46:35.524Z,100113.31
2023-02-23T23:49:06.095Z,100110.28
2023-02-23T23:51:38.786Z,100109.81
2023-02-23T23:54:09.719Z,100111.03
2023-02-23T23:56:38.031Z,100107.41
2023-02-23T23:59:08.178Z,100105.25
